Time;durP1;ratioP1;P1;durP2;ratioP2;P2;SDS_P1;SDS_P2;PMS_P1;PMS_P2;Temp;Humidity;BMP_temperature;BMP_pressure;BME280_temperature;BME280_humidity;BME280_pressure;Samples;Min_cycle;Max_cycle;Signal;HPM_P1;HPM_P2
2021/12/17 00:04:49;;;;;;;26.47;15.70;;;10.10;99.70;;;;;;20838859;28;20210;-78
2021/12/17 00:14:51;;;;;;;29.00;15.90;;;10.00;99.60;;;;;;20838124;28;20709;-76
2021/12/17 00:55:55;;;;;;;29.70;14.57;;;9.90;99.90;;;;;;20833350;28;20243;-78
2021/12/17 01:05:57;;;;;;;30.00;13.73;;;9.90;99.90;;;;;;20831363;28;20197;-78
2021/12/17 01:15:59;;;;;;;22.07;13.43;;;9.90;99.90;;;;;;20834126;28;20274;-78
2021/12/17 01:36:03;;;;;;;21.17;13.53;;;9.60;99.90;;;;;;20832084;28;20232;-75
2021/12/17 01:46:07;;;;;;;22.13;12.77;;;9.50;99.90;;;;;;20831859;28;20265;-79
2021/12/17 02:06:19;;;;;;;22.27;13.53;;;9.10;99.90;;;;;;20830411;28;20214;-78
2021/12/17 02:37:07;;;;;;;22.00;13.70;;;8.40;99.90;;;;;;20829165;28;20295;-78
2021/12/17 02:47:09;;;;;;;23.13;13.37;;;8.30;99.90;;;;;;20829207;28;20214;-78
2021/12/17 02:57:12;;;;;;;22.97;13.37;;;8.20;99.90;;;;;;20828358;28;20230;-78
2021/12/17 03:07:14;;;;;;;25.93;13.93;;;8.00;99.90;;;;;;20828044;28;20225;-79
2021/12/17 03:17:28;;;;;;;20.50;13.33;;;7.80;99.90;;;;;;20830201;28;20597;-79
2021/12/17 03:27:30;;;;;;;23.07;14.10;;;7.70;99.90;;;;;;20842371;28;20305;-76
2021/12/17 03:37:31;;;;;;;20.13;13.87;;;7.50;99.50;;;;;;20841523;28;20268;-78
2021/12/17 03:47:33;;;;;;;21.93;13.70;;;7.50;99.80;;;;;;20840914;28;20213;-78
2021/12/17 03:57:36;;;;;;;20.30;13.23;;;7.30;99.60;;;;;;20839779;28;20645;-78
2021/12/17 04:07:37;;;;;;;24.60;13.33;;;7.20;99.40;;;;;;20839056;28;20206;-75
2021/12/17 04:17:46;;;;;;;25.27;13.70;;;7.20;99.50;;;;;;20838303;28;20241;-70
2021/12/17 04:27:48;;;;;;;23.20;13.47;;;6.90;99.50;;;;;;20852221;28;20288;-69
2021/12/17 04:37:50;;;;;;;25.27;14.90;;;7.00;99.00;;;;;;20836573;28;20296;-69
2021/12/17 04:58:12;;;;;;;14.80;10.70;;;6.80;99.20;;;;;;20837819;28;20274;-70
2021/12/17 05:08:17;;;;;;;19.13;11.90;;;7.00;99.30;;;;;;20835267;28;20238;-75
2021/12/17 05:18:31;;;;;;;117.40;14.70;;;6.90;99.10;;;;;;20834416;28;20605;-74
2021/12/17 05:28:34;;;;;;;36.30;13.00;;;6.90;99.50;;;;;;20833347;28;20205;-75
2021/12/17 05:38:35;;;;;;;80.07;13.27;;;7.00;99.70;;;;;;20831495;28;20294;-75
2021/12/17 05:48:39;;;;;;;152.10;13.07;;;7.00;99.90;;;;;;20831211;28;20728;-77
2021/12/17 05:58:41;;;;;;;228.07;14.40;;;7.00;99.80;;;;;;20830516;28;20593;-80
2021/12/17 06:08:45;;;;;;;162.80;20.52;;;7.00;99.90;;;;;;20822846;28;20766;-77
2021/12/17 06:18:47;;;;;;;46.57;12.17;;;7.50;99.90;;;;;;20829270;28;20298;-78
2021/12/17 06:28:50;;;;;;;51.50;14.53;;;7.00;99.90;;;;;;20829280;28;20658;-72
2021/12/17 06:38:52;;;;;;;24.27;13.37;;;6.90;99.90;;;;;;20828463;28;20267;-73
2021/12/17 06:49:15;;;;;;;19.33;11.37;;;6.90;99.90;;;;;;20828278;28;20203;-75
2021/12/17 07:40:16;;;;;;;126.47;28.37;;;6.80;99.20;;;;;;20840832;28;20207;-76
2021/12/17 07:50:17;;;;;;;54.50;17.53;;;6.70;98.80;;;;;;20838950;28;20532;-74
2021/12/17 08:00:19;;;;;;;16.70;9.40;;;6.60;99.10;;;;;;20839413;28;20215;-77
2021/12/17 08:10:21;;;;;;;26.67;9.67;;;6.70;98.90;;;;;;20837642;28;20242;-76
2021/12/17 08:30:43;;;;;;;120.60;11.47;;;6.60;98.60;;;;;;20836619;28;20233;-68
2021/12/17 08:40:44;;;;;;;27.57;9.57;;;6.60;98.80;;;;;;20835507;28;20217;-78
2021/12/17 08:50:46;;;;;;;16.07;9.43;;;6.70;98.40;;;;;;20834604;28;20233;-69
2021/12/17 09:00:48;;;;;;;19.90;9.93;;;6.60;98.70;;;;;;20834597;28;20202;-67
2021/12/17 09:10:52;;;;;;;14.03;9.70;;;6.70;98.40;;;;;;20832551;28;20732;-75
2021/12/17 09:20:53;;;;;;;22.20;12.00;;;6.80;98.40;;;;;;20832160;28;20618;-72
2021/12/17 09:30:55;;;;;;;33.70;19.07;;;6.80;98.80;;;;;;20832373;28;20795;-75
2021/12/17 09:40:57;;;;;;;31.70;14.83;;;7.00;98.40;;;;;;20831431;28;20653;-76
2021/12/17 09:51:01;;;;;;;26.37;14.27;;;7.10;98.20;;;;;;20830874;28;20244;-78
2021/12/17 10:01:03;;;;;;;30.67;16.40;;;7.20;98.50;;;;;;20830452;28;20341;-73
2021/12/17 10:11:06;;;;;;;26.00;14.37;;;7.10;98.40;;;;;;20829386;28;20245;-74
2021/12/17 10:21:10;;;;;;;23.83;14.30;;;7.10;97.90;;;;;;20829574;28;20205;-77
2021/12/17 10:31:12;;;;;;;50.97;25.93;;;7.20;98.20;;;;;;20840314;28;20234;-77
2021/12/17 10:41:15;;;;;;;22.17;12.87;;;7.40;98.20;;;;;;20845267;28;20235;-74
2021/12/17 10:51:44;;;;;;;20.47;12.43;;;7.70;97.80;;;;;;20844152;28;20273;-75
2021/12/17 11:01:52;;;;;;;17.90;12.53;;;7.70;98.00;;;;;;20843214;28;20241;-70
2021/12/17 11:11:54;;;;;;;20.53;13.00;;;7.70;97.90;;;;;;20843204;28;20714;-74
2021/12/17 11:21:57;;;;;;;18.30;12.03;;;7.70;97.90;;;;;;20841480;28;20271;-72
2021/12/17 11:32:00;;;;;;;20.73;11.27;;;8.00;97.50;;;;;;20840444;28;20234;-73
2021/12/17 11:42:24;;;;;;;19.47;11.03;;;8.00;97.80;;;;;;20839869;28;20211;-71
2021/12/17 11:52:35;;;;;;;22.73;11.57;;;8.10;97.20;;;;;;20838731;28;20236;-68
2021/12/17 12:02:37;;;;;;;16.97;11.97;;;8.10;97.40;;;;;;20837525;28;20219;-74
2021/12/17 12:12:41;;;;;;;15.30;11.53;;;8.20;97.00;;;;;;20853894;28;20279;-72
2021/12/17 12:22:43;;;;;;;14.90;11.17;;;8.20;97.00;;;;;;20918326;28;20264;-76
2021/12/17 12:33:08;;;;;;;15.70;10.97;;;8.30;96.80;;;;;;20918845;28;20239;-80
2021/12/17 12:44:07;;;;;;;17.53;10.90;;;8.30;96.80;;;;;;20926509;28;20582;-70
2021/12/17 12:54:09;;;;;;;15.30;10.47;;;8.30;96.80;;;;;;20898543;28;20216;-71
2021/12/17 13:04:12;;;;;;;16.03;10.90;;;8.50;96.70;;;;;;20898119;28;20216;-75
2021/12/17 13:14:18;;;;;;;18.20;10.13;;;8.50;97.00;;;;;;20898666;28;20666;-74
2021/12/17 13:24:24;;;;;;;11.73;9.37;;;8.60;96.30;;;;;;20894848;28;20215;-75
2021/12/17 13:34:35;;;;;;;12.33;9.30;;;8.60;95.90;;;;;;20896494;28;20764;-69
2021/12/17 13:44:41;;;;;;;12.87;9.00;;;8.60;95.70;;;;;;20936617;28;20618;-70
2021/12/17 13:54:47;;;;;;;11.97;9.03;;;8.70;95.60;;;;;;20841384;28;20288;-69
2021/12/17 14:05:06;;;;;;;29.00;14.80;;;8.70;95.20;;;;;;20838077;28;20241;-72
2021/12/17 14:15:15;;;;;;;9.70;7.30;;;8.60;94.90;;;;;;20889387;28;20629;-71
2021/12/17 14:25:23;;;;;;;11.87;7.00;;;8.50;94.40;;;;;;20921455;28;20211;-70
2021/12/17 14:36:01;;;;;;;9.23;7.33;;;8.50;94.40;;;;;;20918828;28;20767;-71
2021/12/17 14:46:16;;;;;;;11.25;8.60;;;8.50;94.50;;;;;;20917502;28;21053;-69
2021/12/17 15:06:38;;;;;;;17.90;9.53;;;8.50;94.20;;;;;;20916834;28;20236;-70
2021/12/17 15:16:40;;;;;;;15.80;9.03;;;8.50;94.30;;;;;;20909059;28;20249;-72
2021/12/17 15:26:41;;;;;;;17.00;9.90;;;8.60;94.60;;;;;;20833531;28;20265;-72
2021/12/17 15:36:43;;;;;;;17.43;8.57;;;8.60;94.30;;;;;;20832228;28;20239;-71
2021/12/17 15:46:45;;;;;;;13.77;9.50;;;8.40;94.40;;;;;;20828869;28;20210;-71
2021/12/17 15:56:47;;;;;;;9.90;7.27;;;8.40;94.70;;;;;;20831305;28;20294;-68
2021/12/17 16:06:49;;;;;;;10.60;7.50;;;8.40;94.60;;;;;;20829896;28;20203;-69
2021/12/17 16:26:56;;;;;;;21.70;8.80;;;8.50;95.10;;;;;;20829809;28;20205;-71
2021/12/17 16:36:58;;;;;;;15.03;10.07;;;8.40;95.10;;;;;;20828763;28;20249;-70
2021/12/17 16:47:02;;;;;;;13.77;9.27;;;8.20;95.10;;;;;;20828837;28;20202;-68
2021/12/17 16:57:04;;;;;;;16.43;9.60;;;8.20;95.40;;;;;;20828740;28;20256;-70
2021/12/17 17:23:15;;;;;;;18.10;11.57;;;8.20;95.40;;;;;;21322285;27;20541;-72
2021/12/17 17:33:17;;;;;;;25.57;12.30;;;8.00;95.60;;;;;;21235879;27;20257;-71
2021/12/17 17:43:19;;;;;;;18.93;12.70;;;7.60;95.40;;;;;;21236878;27;20288;-72
2021/12/17 17:53:20;;;;;;;21.57;13.80;;;7.20;95.50;;;;;;21233695;28;20272;-71
2021/12/17 18:03:22;;;;;;;22.73;14.67;;;7.30;95.90;;;;;;21234002;28;20302;-73
2021/12/17 18:13:26;;;;;;;24.13;15.27;;;7.00;95.90;;;;;;21232622;28;20207;-73
2021/12/17 18:23:28;;;;;;;46.37;25.27;;;6.60;95.90;;;;;;21178096;27;20223;-73
2021/12/17 18:33:29;;;;;;;27.07;16.77;;;6.40;96.30;;;;;;21174141;28;20204;-76
2021/12/17 18:53:53;;;;;;;25.27;15.43;;;6.30;96.30;;;;;;21173015;28;20300;-72
2021/12/17 19:03:55;;;;;;;26.77;15.07;;;6.30;96.50;;;;;;21172008;28;20230;-74
2021/12/17 19:14:00;;;;;;;27.40;16.10;;;6.00;96.20;;;;;;21170517;28;20241;-74
2021/12/17 19:24:08;;;;;;;27.23;16.63;;;5.70;96.60;;;;;;21169978;28;20283;-73
2021/12/17 19:34:09;;;;;;;27.90;16.03;;;5.70;96.60;;;;;;21168561;28;20271;-72
2021/12/17 19:44:11;;;;;;;43.93;20.77;;;5.60;96.40;;;;;;21167862;28;20237;-75
2021/12/17 19:54:13;;;;;;;24.70;15.63;;;5.40;96.50;;;;;;21165223;28;20612;-72
2021/12/17 20:04:14;;;;;;;28.67;17.70;;;5.30;96.40;;;;;;21166615;28;20274;-73
2021/12/17 20:14:16;;;;;;;28.03;17.57;;;5.30;96.50;;;;;;21137347;28;20231;-74
2021/12/17 20:24:18;;;;;;;32.77;19.00;;;5.30;96.30;;;;;;21080109;28;20686;-71
2021/12/17 20:34:20;;;;;;;32.10;17.97;;;5.20;96.40;;;;;;21087840;28;20198;-69
2021/12/17 20:44:21;;;;;;;33.90;19.17;;;4.90;96.40;;;;;;21137824;27;20245;-70
2021/12/17 20:54:23;;;;;;;33.30;18.87;;;4.70;96.50;;;;;;21138947;28;21548;-72
2021/12/17 21:04:25;;;;;;;32.53;18.87;;;4.80;96.40;;;;;;21100664;28;20222;-69
2021/12/17 21:14:27;;;;;;;29.20;17.40;;;4.60;96.20;;;;;;21094046;28;20638;-71
2021/12/17 21:24:29;;;;;;;32.07;19.90;;;4.50;96.10;;;;;;21160265;28;20275;-71
2021/12/17 21:34:31;;;;;;;29.53;19.17;;;4.50;96.10;;;;;;21156786;28;20210;-72
2021/12/17 21:44:37;;;;;;;30.37;18.07;;;4.30;96.20;;;;;;21075158;28;20241;-72
2021/12/17 21:55:53;;;;;;;25.00;16.23;;;4.60;96.30;;;;;;20983052;28;20557;-71
2021/12/17 22:05:57;;;;;;;25.50;16.40;;;4.60;96.00;;;;;;20981210;28;20211;-72
2021/12/17 22:15:58;;;;;;;26.50;17.00;;;4.60;96.20;;;;;;20980324;28;20216;-72
2021/12/17 22:26:00;;;;;;;29.80;17.63;;;4.60;95.70;;;;;;20979620;28;20215;-74
2021/12/17 22:36:34;;;;;;;22.77;14.70;;;4.60;96.00;;;;;;20982644;28;20557;-73
2021/12/17 22:46:35;;;;;;;22.20;14.03;;;4.60;95.80;;;;;;20981667;28;20207;-71
2021/12/17 22:56:37;;;;;;;25.80;14.23;;;4.60;95.90;;;;;;20980586;28;20211;-71
2021/12/17 23:06:44;;;;;;;27.90;17.00;;;4.70;95.90;;;;;;20980089;28;20201;-71
2021/12/17 23:16:46;;;;;;;29.07;19.03;;;4.70;96.30;;;;;;20978971;28;20571;-71
2021/12/17 23:26:48;;;;;;;29.77;15.60;;;4.90;96.50;;;;;;20977436;28;20249;-72
2021/12/17 23:36:50;;;;;;;27.13;15.63;;;5.00;96.30;;;;;;20980111;28;20210;-71
2021/12/17 23:46:52;;;;;;;29.73;15.70;;;4.90;96.10;;;;;;20929801;28;20208;-71
2021/12/17 23:56:54;;;;;;;27.73;16.57;;;4.80;96.20;;;;;;20923478;28;20212;-71
